createdAt,value
2023-01-10T00:02:41.669Z,1.10
2023-01-10T00:05:29.357Z,1.10
2023-01-10T00:08:19.719Z,1.10
2023-01-10T00:11:26.999Z,1.10
2023-01-10T00:14:12.705Z,1.10
2023-01-10T00:16:59.497Z,1.10
2023-01-10T00:19:46.447Z,1.20
2023-01-10T00:22:33.547Z,1.20
2023-01-10T00:25:21.952Z,1.20
2023-01-10T00:28:17.455Z,1.20
2023-01-10T00:31:06.987Z,1.20
2023-01-10T00:33:54.144Z,1.20
2023-01-10T00:36:42.144Z,1.10
2023-01-10T00:39:29.247Z,1.10
2023-01-10T00:42:35.487Z,1.10
2023-01-10T00:45:25.034Z,1.10
2023-01-10T00:48:12.057Z,1.10
2023-01-10T00:50:58.653Z,1.10
2023-01-10T00:53:46.137Z,0.90
2023-01-10T00:56:33.120Z,1.10
2023-01-10T00:59:21.504Z,1.00
2023-01-10T01:02:08.649Z,1.00
2023-01-10T01:04:56.134Z,1.00
2023-01-10T01:07:43.298Z,1.00
2023-01-10T01:10:30.696Z,1.10
2023-01-10T01:13:23.115Z,1.00
2023-01-10T01:16:11.754Z,1.00
2023-01-10T01:18:58.984Z,1.00
2023-01-10T01:21:45.896Z,1.00
2023-01-10T01:24:33.342Z,1.00
2023-01-10T01:27:21.068Z,1.00
2023-01-10T01:30:09.686Z,1.00
2023-01-10T01:32:58.079Z,1.00
2023-01-10T01:35:45.535Z,1.00
2023-01-10T01:38:32.860Z,1.10
2023-01-10T01:41:37.180Z,1.00
2023-01-10T01:44:25.535Z,1.00
2023-01-10T01:47:21.564Z,1.00
2023-01-10T01:50:16.950Z,1.00
2023-01-10T01:53:08.952Z,0.90
2023-01-10T01:55:59.097Z,0.90
2023-01-10T01:58:51.206Z,0.90
2023-01-10T02:01:40.062Z,0.80
2023-01-10T02:04:33.307Z,0.80
2023-01-10T02:07:23.879Z,0.80
2023-01-10T02:10:16.289Z,0.90
2023-01-10T02:13:07.148Z,0.90
2023-01-10T02:15:54.541Z,0.90
2023-01-10T02:18:43.567Z,0.90
2023-01-10T02:22:18.681Z,0.90
2023-01-10T02:25:35.797Z,0.80
2023-01-10T02:28:59.255Z,0.80
2023-01-10T02:32:17.117Z,0.90
2023-01-10T02:35:26.599Z,0.90
2023-01-10T02:38:21.280Z,0.80
2023-01-10T02:41:16.698Z,0.80
2023-01-10T02:44:10.169Z,0.80
2023-01-10T02:46:58.065Z,0.80
2023-01-10T02:49:48.096Z,0.70
2023-01-10T02:52:35.323Z,0.70
2023-01-10T02:55:27.814Z,0.70
2023-01-10T02:58:30.971Z,0.70
2023-01-10T03:01:23.526Z,0.60
2023-01-10T03:04:21.903Z,0.70
2023-01-10T03:07:19.650Z,0.70
2023-01-10T03:10:11.607Z,0.70
2023-01-10T03:13:03.264Z,0.70
2023-01-10T03:15:52.969Z,0.70
2023-01-10T03:18:43.727Z,0.60
2023-01-10T03:21:32.845Z,0.60
2023-01-10T03:24:26.327Z,0.60
2023-01-10T03:27:20.967Z,0.60
2023-01-10T03:30:14.220Z,0.60
2023-01-10T03:33:01.285Z,0.60
2023-01-10T03:36:02.464Z,0.60
2023-01-10T03:38:53.716Z,0.60
2023-01-10T03:41:49.309Z,0.60
2023-01-10T03:44:45.634Z,0.70
2023-01-10T03:47:37.344Z,0.70
2023-01-10T03:50:26.933Z,0.70
2023-01-10T03:53:15.967Z,0.70
2023-01-10T03:56:03.086Z,0.70
2023-01-10T03:58:51.987Z,0.70
2023-01-10T04:01:39.324Z,0.70
2023-01-10T04:04:26.571Z,0.70
2023-01-10T04:07:14.797Z,0.70
2023-01-10T04:10:01.738Z,0.70
2023-01-10T04:12:49.214Z,0.70
2023-01-10T04:15:38.021Z,0.60
2023-01-10T04:18:25.462Z,0.60
2023-01-10T04:21:12.749Z,0.60
2023-01-10T04:23:59.501Z,0.50
2023-01-10T04:26:46.662Z,0.50
2023-01-10T04:29:34.833Z,0.50
2023-01-10T04:32:23.305Z,0.50
2023-01-10T04:35:11.283Z,0.50
2023-01-10T04:37:58.160Z,0.50
2023-01-10T04:40:46.052Z,0.50
2023-01-10T04:43:33.262Z,0.50
2023-01-10T04:46:20.524Z,0.50
2023-01-10T04:49:10.265Z,0.60
2023-01-10T04:51:57.210Z,0.60
2023-01-10T04:54:44.281Z,0.60
2023-01-10T04:57:31.271Z,0.60
2023-01-10T05:00:19.199Z,0.60
2023-01-10T05:03:06.255Z,0.60
2023-01-10T05:05:55.034Z,0.70
2023-01-10T05:08:42.207Z,0.70
2023-01-10T05:11:29.086Z,0.70
2023-01-10T05:14:16.082Z,0.70
2023-01-10T05:17:03.489Z,0.70
2023-01-10T05:19:50.334Z,0.70
2023-01-10T05:22:38.979Z,0.70
2023-01-10T05:25:25.874Z,0.60
2023-01-10T05:28:13.267Z,0.70
2023-01-10T05:31:00.432Z,0.70
2023-01-10T05:33:48.001Z,0.70
2023-01-10T05:36:35.396Z,0.70
2023-01-10T05:39:24.021Z,0.70
2023-01-10T05:42:10.914Z,0.70
2023-01-10T05:44:57.935Z,0.70
2023-01-10T05:47:46.320Z,0.70
2023-01-10T05:50:33.590Z,0.70
2023-01-10T05:53:21.324Z,0.80
2023-01-10T05:56:13.312Z,0.70
2023-01-10T05:59:16.989Z,0.80
2023-01-10T06:02:08.014Z,0.80
2023-01-10T06:04:56.466Z,0.70
2023-01-10T06:07:43.399Z,0.70
2023-01-10T06:10:30.803Z,0.80
2023-01-10T06:13:19.584Z,0.70
2023-01-10T06:16:07.299Z,0.70
2023-01-10T06:18:54.630Z,0.70
2023-01-10T06:21:41.923Z,0.70
2023-01-10T06:24:28.788Z,0.70
2023-01-10T06:27:15.961Z,0.80
2023-01-10T06:30:04.420Z,0.80
2023-01-10T06:32:51.543Z,0.70
2023-01-10T06:35:38.793Z,0.70
2023-01-10T06:38:25.709Z,0.70
2023-01-10T06:41:15.552Z,0.70
2023-01-10T06:44:04.036Z,0.70
2023-01-10T06:46:52.614Z,0.70
2023-01-10T06:49:39.697Z,0.70
2023-01-10T06:52:27.162Z,0.70
2023-01-10T06:55:14.417Z,0.70
2023-01-10T06:58:03.192Z,0.70
2023-01-10T07:00:51.291Z,0.60
2023-01-10T07:03:40.955Z,0.60
2023-01-10T07:06:28.064Z,0.60
2023-01-10T07:09:14.950Z,0.50
2023-01-10T07:12:03.093Z,0.50
2023-01-10T07:14:49.973Z,0.50
2023-01-10T07:17:36.829Z,0.50
2023-01-10T07:20:25.175Z,0.50
2023-01-10T07:23:12.293Z,0.50
2023-01-10T07:25:59.634Z,0.60
2023-01-10T07:28:50.986Z,0.60
2023-01-10T07:31:37.780Z,0.60
2023-01-10T07:34:25.061Z,0.60
2023-01-10T07:37:13.183Z,0.50
2023-01-10T07:40:00.326Z,0.50
2023-01-10T07:42:47.344Z,0.60
2023-01-10T07:45:34.855Z,0.60
2023-01-10T07:48:22.060Z,0.60
2023-01-10T07:51:08.989Z,0.50
2023-01-10T07:53:57.036Z,0.40
2023-01-10T07:56:44.331Z,0.30
2023-01-10T07:59:31.537Z,0.30
2023-01-10T08:02:18.514Z,0.20
2023-01-10T08:05:06.236Z,0.30
2023-01-10T08:07:55.339Z,0.50
2023-01-10T08:10:43.986Z,0.60
2023-01-10T08:13:31.888Z,0.80
2023-01-10T08:16:20.944Z,0.90
2023-01-10T08:19:08.221Z,1.10
2023-01-10T08:21:56.364Z,1.30
2023-01-10T08:24:43.273Z,1.70
2023-01-10T08:27:32.015Z,2.60
2023-01-10T08:30:19.524Z,4.20
2023-01-10T08:33:08.696Z,4.20
2023-01-10T08:35:55.585Z,3.70
2023-01-10T08:38:42.717Z,3.40
2023-01-10T08:41:31.489Z,4.00
2023-01-10T08:44:19.921Z,5.20
2023-01-10T08:47:07.048Z,6.50
2023-01-10T08:49:54.043Z,7.20
2023-01-10T08:52:41.023Z,7.80
2023-01-10T08:55:29.138Z,8.40
2023-01-10T08:58:16.836Z,8.80
2023-01-10T09:01:07.629Z,9.30
2023-01-10T09:03:54.507Z,9.90
2023-01-10T09:06:41.785Z,10.10
2023-01-10T09:09:28.867Z,9.70
2023-01-10T09:12:33.951Z,10.00
2023-01-10T09:15:20.824Z,9.70
2023-01-10T09:18:11.734Z,8.80
2023-01-10T09:20:58.877Z,7.50
2023-01-10T09:23:45.846Z,7.40
2023-01-10T09:26:32.570Z,6.90
2023-01-10T09:29:19.407Z,6.50
2023-01-10T09:32:06.668Z,6.10
2023-01-10T09:34:55.330Z,4.90
2023-01-10T09:37:42.598Z,4.10
2023-01-10T09:40:41.349Z,4.10
2023-01-10T09:43:38.834Z,3.90
2023-01-10T09:46:48.022Z,4.00
2023-01-10T09:49:45.988Z,4.00
2023-01-10T09:52:37.190Z,3.90
2023-01-10T09:55:28.287Z,3.70
2023-01-10T09:58:18.381Z,4.50
2023-01-10T10:01:08.259Z,4.60
2023-01-10T10:04:03.167Z,4.20
2023-01-10T10:06:50.980Z,4.00
2023-01-10T10:09:39.395Z,3.80
2023-01-10T10:12:35.395Z,3.90
2023-01-10T10:15:30.332Z,4.60
2023-01-10T10:18:28.719Z,5.30
2023-01-10T10:21:24.930Z,5.80
2023-01-10T10:24:35.004Z,5.80
2023-01-10T10:27:25.734Z,5.90
2023-01-10T10:30:29.116Z,6.20
2023-01-10T10:33:31.256Z,6.40
2023-01-10T10:36:24.031Z,7.00
2023-01-10T10:39:17.064Z,7.70
2023-01-10T10:42:07.684Z,7.00
2023-01-10T10:45:00.628Z,6.50
2023-01-10T10:47:52.248Z,6.40
2023-01-10T10:50:51.514Z,6.80
2023-01-10T10:53:38.485Z,7.40
2023-01-10T10:56:27.509Z,7.10
2023-01-10T10:59:19.883Z,6.60
2023-01-10T11:02:26.901Z,6.10
2023-01-10T11:05:21.008Z,5.50
2023-01-10T11:08:12.034Z,5.30
2023-01-10T11:11:00.911Z,5.10
2023-01-10T11:13:52.336Z,4.80
2023-01-10T11:16:41.122Z,4.60
2023-01-10T11:19:30.359Z,4.40
2023-01-10T11:22:19.575Z,4.00
2023-01-10T11:25:14.947Z,4.20
2023-01-10T11:28:02.852Z,4.30
2023-01-10T11:30:52.420Z,4.80
2023-01-10T11:33:40.206Z,4.80
2023-01-10T11:36:28.994Z,4.40
2023-01-10T11:39:17.905Z,4.30
2023-01-10T11:42:29.955Z,4.30
2023-01-10T11:45:29.407Z,4.10
2023-01-10T11:48:34.222Z,3.90
2023-01-10T11:51:33.036Z,3.80
2023-01-10T11:54:23.843Z,3.80
2023-01-10T11:57:18.172Z,3.90
2023-01-10T12:00:08.625Z,4.20
2023-01-10T12:02:57.110Z,4.60
2023-01-10T12:05:52.584Z,4.60
2023-01-10T12:08:42.502Z,4.90
2023-01-10T12:11:33.076Z,5.30
2023-01-10T12:14:21.675Z,5.00
2023-01-10T12:17:12.456Z,4.70
2023-01-10T12:20:01.661Z,4.60
2023-01-10T12:22:52.836Z,4.30
2023-01-10T12:25:43.821Z,4.10
2023-01-10T12:28:32.349Z,3.80
2023-01-10T12:31:21.778Z,3.90
2023-01-10T12:34:16.876Z,4.00
2023-01-10T12:37:10.440Z,4.50
2023-01-10T12:40:03.648Z,4.80
2023-01-10T12:43:16.769Z,4.80
2023-01-10T12:46:26.319Z,4.60
2023-01-10T12:49:25.710Z,4.40
2023-01-10T12:52:30.900Z,4.30
2023-01-10T12:55:19.542Z,4.20
2023-01-10T12:58:25.176Z,4.10
2023-01-10T13:01:18.050Z,4.10
2023-01-10T13:04:11.744Z,4.20
2023-01-10T13:06:59.398Z,4.20
2023-01-10T13:09:48.986Z,3.70
2023-01-10T13:12:41.390Z,3.90
2023-01-10T13:15:33.557Z,4.00
2023-01-10T13:18:25.939Z,4.10
2023-01-10T13:21:14.307Z,4.20
2023-01-10T13:24:04.522Z,4.30
2023-01-10T13:26:54.087Z,4.30
2023-01-10T13:29:44.013Z,4.00
2023-01-10T13:32:35.407Z,4.00
2023-01-10T13:35:25.671Z,3.80
2023-01-10T13:38:20.430Z,3.80
2023-01-10T13:41:09.129Z,3.80
2023-01-10T13:44:06.900Z,3.80
2023-01-10T13:46:53.820Z,3.60
2023-01-10T13:49:45.149Z,3.50
2023-01-10T13:52:34.349Z,3.60
2023-01-10T13:55:30.109Z,3.50
2023-01-10T13:58:58.597Z,3.50
2023-01-10T14:02:03.672Z,3.50
2023-01-10T14:04:55.270Z,3.40
2023-01-10T14:07:46.254Z,3.10
2023-01-10T14:10:34.643Z,2.90
2023-01-10T14:13:25.550Z,2.90
2023-01-10T14:16:31.896Z,2.80
2023-01-10T14:19:28.811Z,2.80
2023-01-10T14:22:31.227Z,2.80
2023-01-10T14:25:22.175Z,2.80
2023-01-10T14:28:21.562Z,2.70
2023-01-10T14:31:14.850Z,2.60
2023-01-10T14:34:03.164Z,2.70
2023-01-10T14:36:54.994Z,2.80
2023-01-10T14:39:44.591Z,2.80
2023-01-10T14:42:31.981Z,2.70
2023-01-10T14:45:31.723Z,2.70
2023-01-10T14:48:31.480Z,2.70
2023-01-10T14:51:22.332Z,2.70
2023-01-10T14:54:14.194Z,2.70
2023-01-10T14:57:04.594Z,2.50
2023-01-10T14:59:52.711Z,2.60
2023-01-10T15:02:45.013Z,2.50
2023-01-10T15:05:33.796Z,2.50
2023-01-10T15:08:25.338Z,2.50
2023-01-10T15:11:14.458Z,2.40
2023-01-10T15:14:10.401Z,2.40
2023-01-10T15:17:02.517Z,2.30
2023-01-10T15:20:08.670Z,2.20
2023-01-10T15:22:58.093Z,2.30
2023-01-10T15:25:45.869Z,2.20
2023-01-10T15:28:35.945Z,2.20
2023-01-10T15:31:24.266Z,2.20
2023-01-10T15:34:16.244Z,2.10
2023-01-10T15:37:04.173Z,2.10
2023-01-10T15:39:53.124Z,2.10
2023-01-10T15:42:40.620Z,2.10
2023-01-10T15:45:31.142Z,2.00
2023-01-10T15:48:32.788Z,2.00
2023-01-10T15:51:27.506Z,1.90
2023-01-10T15:54:31.806Z,1.80
2023-01-10T15:57:27.376Z,1.80
2023-01-10T16:00:17.651Z,1.70
2023-01-10T16:03:16.570Z,1.70
2023-01-10T16:06:09.954Z,1.70
2023-01-10T16:08:58.554Z,1.70
2023-01-10T16:12:06.995Z,1.70
2023-01-10T16:14:53.919Z,1.60
2023-01-10T16:17:40.782Z,1.60
2023-01-10T16:20:30.653Z,1.50
2023-01-10T16:23:21.575Z,1.40
2023-01-10T16:26:11.113Z,1.40
2023-01-10T16:28:58.289Z,1.40
2023-01-10T16:31:45.452Z,1.40
2023-01-10T16:34:34.324Z,1.30
2023-01-10T16:37:21.693Z,1.40
2023-01-10T16:40:20.147Z,1.40
2023-01-10T16:43:18.078Z,1.40
2023-01-10T16:46:04.980Z,1.40
2023-01-10T16:48:53.452Z,1.40
2023-01-10T16:51:41.135Z,1.40
2023-01-10T16:54:28.506Z,1.40
2023-01-10T16:57:17.877Z,1.40
2023-01-10T17:00:05.828Z,1.40
2023-01-10T17:02:52.878Z,1.30
2023-01-10T17:05:41.060Z,1.30
2023-01-10T17:08:28.154Z,1.30
2023-01-10T17:11:21.107Z,1.20
2023-01-10T17:14:13.910Z,1.10
2023-01-10T17:17:03.800Z,1.10
2023-01-10T17:19:50.760Z,1.10
2023-01-10T17:22:38.352Z,1.10
2023-01-10T17:25:25.743Z,1.10
2023-01-10T17:28:13.577Z,1.10
2023-01-10T17:31:03.200Z,1.00
2023-01-10T17:33:50.650Z,1.00
2023-01-10T17:36:39.176Z,1.00
2023-01-10T17:39:26.548Z,1.00
2023-01-10T17:42:13.672Z,1.10
2023-01-10T17:45:00.781Z,1.10
2023-01-10T17:47:48.969Z,1.20
2023-01-10T17:50:36.718Z,1.20
2023-01-10T17:53:23.902Z,1.20
2023-01-10T17:56:10.887Z,1.30
2023-01-10T17:58:57.994Z,1.30
2023-01-10T18:01:45.073Z,1.30
2023-01-10T18:04:33.779Z,1.30
2023-01-10T18:07:21.013Z,1.30
2023-01-10T18:10:09.287Z,1.30
2023-01-10T18:12:56.282Z,1.40
2023-01-10T18:15:52.432Z,1.30
2023-01-10T18:18:48.430Z,1.40
2023-01-10T18:21:41.376Z,1.40
2023-01-10T18:24:28.755Z,1.40
2023-01-10T18:27:15.773Z,1.40
2023-01-10T18:30:03.594Z,1.40
2023-01-10T18:32:50.615Z,1.40
2023-01-10T18:35:38.862Z,1.40
2023-01-10T18:38:27.420Z,1.40
2023-01-10T18:41:16.286Z,1.40
2023-01-10T18:44:03.728Z,1.50
2023-01-10T18:46:50.804Z,1.50
2023-01-10T18:49:37.706Z,1.50
2023-01-10T18:52:25.200Z,1.50
2023-01-10T18:55:31.071Z,1.50
2023-01-10T18:58:20.954Z,1.50
2023-01-10T19:01:08.431Z,1.50
2023-01-10T19:03:55.675Z,1.60
2023-01-10T19:06:44.416Z,1.60
2023-01-10T19:09:31.295Z,1.70
2023-01-10T19:12:20.841Z,1.80
2023-01-10T19:15:09.221Z,1.80
2023-01-10T19:17:57.125Z,1.80
2023-01-10T19:20:44.592Z,1.80
2023-01-10T19:23:31.569Z,1.90
2023-01-10T19:26:18.869Z,1.90
2023-01-10T19:29:07.244Z,2.00
2023-01-10T19:31:54.396Z,2.00
2023-01-10T19:34:41.666Z,2.10
2023-01-10T19:37:29.424Z,2.10
2023-01-10T19:40:16.668Z,2.20
2023-01-10T19:43:03.786Z,2.30
2023-01-10T19:45:53.542Z,2.30
2023-01-10T19:48:41.723Z,2.30
2023-01-10T19:51:28.796Z,2.20
2023-01-10T19:54:16.054Z,2.30
2023-01-10T19:57:03.230Z,2.40
2023-01-10T19:59:55.475Z,2.30
2023-01-10T20:02:44.215Z,2.30
2023-01-10T20:05:31.589Z,2.20
2023-01-10T20:08:19.171Z,2.30
2023-01-10T20:11:07.205Z,2.40
2023-01-10T20:13:54.672Z,2.40
2023-01-10T20:16:43.300Z,2.40
2023-01-10T20:19:31.572Z,2.40
2023-01-10T20:22:18.689Z,2.50
2023-01-10T20:25:06.759Z,2.50
2023-01-10T20:27:54.355Z,2.50
2023-01-10T20:30:41.278Z,2.50
2023-01-10T20:33:28.400Z,2.40
2023-01-10T20:36:18.621Z,2.40
2023-01-10T20:39:07.358Z,2.40
2023-01-10T20:41:54.870Z,2.40
2023-01-10T20:44:50.785Z,2.40
2023-01-10T20:47:39.268Z,2.30
2023-01-10T20:50:27.752Z,2.30
2023-01-10T20:53:17.063Z,2.20
2023-01-10T20:56:05.426Z,2.30
2023-01-10T20:58:53.364Z,2.30
2023-01-10T21:01:40.751Z,2.20
2023-01-10T21:04:28.037Z,2.30
2023-01-10T21:07:15.078Z,2.30
2023-01-10T21:10:03.958Z,2.40
2023-01-10T21:12:52.184Z,2.40
2023-01-10T21:15:41.250Z,2.50
2023-01-10T21:18:32.817Z,2.40
2023-01-10T21:21:22.583Z,2.40
2023-01-10T21:24:10.928Z,2.30
2023-01-10T21:26:59.641Z,2.30
2023-01-10T21:29:46.513Z,2.20
2023-01-10T21:32:34.149Z,2.10
2023-01-10T21:35:22.402Z,2.10
2023-01-10T21:38:10.209Z,2.20
2023-01-10T21:40:57.860Z,2.40
2023-01-10T21:43:46.289Z,2.60
2023-01-10T21:46:34.653Z,2.70
2023-01-10T21:49:22.401Z,2.70
2023-01-10T21:52:09.621Z,2.90
2023-01-10T21:54:57.885Z,2.90
2023-01-10T21:57:45.260Z,2.90
2023-01-10T22:00:33.967Z,2.90
2023-01-10T22:03:20.983Z,2.90
2023-01-10T22:06:08.867Z,3.00
2023-01-10T22:08:56.121Z,3.00
2023-01-10T22:11:43.290Z,3.00
2023-01-10T22:14:30.261Z,3.00
2023-01-10T22:17:18.889Z,3.10
2023-01-10T22:20:08.475Z,3.10
2023-01-10T22:22:55.725Z,3.10
2023-01-10T22:25:43.007Z,3.00
2023-01-10T22:28:30.340Z,3.00
2023-01-10T22:31:18.216Z,3.10
2023-01-10T22:34:06.550Z,3.10
2023-01-10T22:36:53.688Z,3.20
2023-01-10T22:39:40.693Z,3.20
2023-01-10T22:42:28.060Z,3.20
2023-01-10T22:45:14.900Z,3.20
2023-01-10T22:48:01.804Z,3.20
2023-01-10T22:50:50.907Z,3.20
2023-01-10T22:53:38.332Z,3.20
2023-01-10T22:56:25.616Z,3.30
2023-01-10T22:59:13.042Z,3.30
2023-01-10T23:02:00.223Z,3.30
2023-01-10T23:04:49.278Z,3.30
2023-01-10T23:07:37.940Z,3.40
2023-01-10T23:10:30.826Z,3.40
2023-01-10T23:13:18.184Z,3.40
2023-01-10T23:16:07.694Z,3.40
2023-01-10T23:18:55.044Z,3.40
2023-01-10T23:21:42.125Z,3.40
2023-01-10T23:24:30.754Z,3.40
2023-01-10T23:27:17.979Z,3.40
2023-01-10T23:30:05.165Z,3.40
2023-01-10T23:32:52.546Z,3.50
2023-01-10T23:35:39.891Z,3.50
2023-01-10T23:38:27.370Z,3.50
2023-01-10T23:41:15.736Z,3.60
2023-01-10T23:44:02.830Z,3.60
2023-01-10T23:46:49.556Z,3.70
2023-01-10T23:49:36.526Z,3.70
2023-01-10T23:52:23.779Z,3.70
2023-01-10T23:55:11.426Z,3.70
2023-01-10T23:57:59.771Z,3.60
